Time;durP1;ratioP1;P1;durP2;ratioP2;P2;SDS_P1;SDS_P2;PMS_P1;PMS_P2;Temp;Humidity;BMP_temperature;BMP_pressure;BME280_temperature;BME280_humidity;BME280_pressure;Samples;Min_cycle;Max_cycle;Signal;HPM_P1;HPM_P2
2023/12/21 00:00:28;;;;;;;0.60;0.60;;;;;;;3.86;94.69;96630.53;29396;251;63004;-59
2023/12/21 00:02:50;;;;;;;0.60;0.60;;;;;;;3.99;93.35;96622.06;29394;213;64005;-54
2023/12/21 00:03:21;;;;;;;0.60;0.60;;;;;;;4.02;93.67;96626.09;29394;238;64009;-60
2023/12/21 00:03:53;;;;;;;0.60;0.60;;;;;;;4.07;93.45;96622.63;29395;412;63017;-56
2023/12/21 00:04:25;;;;;;;0.60;0.60;;;;;;;4.10;93.15;96616.75;29395;222;63009;-55
2023/12/21 00:04:57;;;;;;;0.60;0.60;;;;;;;4.02;93.73;96624.22;29395;279;63004;-55
2023/12/21 00:05:28;;;;;;;0.60;0.60;;;;;;;3.98;93.86;96615.06;29395;196;63009;-68
2023/12/21 00:06:00;;;;;;;0.60;0.60;;;;;;;3.94;94.37;96619.31;29394;206;64004;-72
2023/12/21 00:06:31;;;;;;;0.60;0.60;;;;;;;3.89;94.76;96621.97;29395;206;63009;-55
2023/12/21 00:07:03;;;;;;;0.60;0.60;;;;;;;3.86;94.72;96627.03;29395;297;63004;-55
2023/12/21 00:07:34;;;;;;;0.60;0.60;;;;;;;3.83;95.32;96628.34;29395;228;63024;-58
2023/12/21 00:08:06;;;;;;;0.60;0.60;;;;;;;3.90;95.37;96618.22;29395;241;63004;-54
2023/12/21 00:08:38;;;;;;;0.60;0.60;;;;;;;3.91;94.88;96627.88;29395;222;63009;-55
2023/12/21 00:09:09;;;;;;;0.60;0.60;;;;;;;3.89;95.20;96615.78;29395;203;63005;-55
2023/12/21 00:09:40;;;;;;;0.60;0.60;;;;;;;3.90;95.34;96620.09;29395;301;63009;-55
2023/12/21 00:10:11;;;;;;;0.60;0.60;;;;;;;3.93;95.05;96633.81;29395;223;63005;-57
2023/12/21 00:10:42;;;;;;;0.60;0.60;;;;;;;3.94;94.16;96621.19;29395;196;63009;-65
2023/12/21 00:11:17;;;;;;;0.60;0.60;;;;;;;3.98;94.03;96619.63;29394;214;64005;-62
2023/12/21 00:11:48;;;;;;;0.60;0.60;;;;;;;4.02;93.90;96631.47;29394;219;64009;-68
2023/12/21 00:12:21;;;;;;;0.60;0.60;;;;;;;4.02;93.95;96626.91;29395;400;63004;-55
2023/12/21 00:12:52;;;;;;;1.05;1.05;;;;;;;4.02;93.89;96628.78;29395;202;63009;-55
2023/12/21 00:13:26;;;;;;;0.60;0.60;;;;;;;3.97;94.30;96626.06;29395;214;63004;-69
2023/12/21 00:13:59;;;;;;;0.60;0.60;;;;;;;3.93;94.54;96620.38;29395;209;63009;-56
2023/12/21 00:14:31;;;;;;;0.60;0.60;;;;;;;3.89;94.88;96616.59;29395;218;63004;-67
2023/12/21 00:15:03;;;;;;;0.60;0.60;;;;;;;3.85;95.02;96612.81;29395;215;63008;-67
2023/12/21 00:15:34;;;;;;;0.60;0.60;;;;;;;3.84;95.40;96608.50;29395;338;63004;-66
2023/12/21 00:16:08;;;;;;;0.60;0.60;;;;;;;3.84;95.33;96613.88;29395;214;63009;-54
2023/12/21 00:16:40;;;;;;;0.60;0.60;;;;;;;3.86;95.58;96601.00;29394;202;64005;-56
2023/12/21 00:17:11;;;;;;;0.60;0.60;;;;;;;3.83;95.85;96612.25;29394;288;64009;-55
2023/12/21 00:17:43;;;;;;;0.60;0.60;;;;;;;3.85;95.64;96615.47;29395;203;63005;-64
2023/12/21 00:18:14;;;;;;;2.37;2.28;;;;;;;3.86;95.71;96606.38;29395;288;63009;-62
2023/12/21 00:18:46;;;;;;;0.60;0.60;;;;;;;3.87;95.52;96612.53;29395;252;63017;-67
2023/12/21 00:19:17;;;;;;;0.60;0.60;;;;;;;3.89;95.21;96605.84;29395;234;63009;-66
2023/12/21 00:19:51;;;;;;;0.60;0.60;;;;;;;3.94;95.17;96602.41;29395;197;63005;-67
2023/12/21 00:20:23;;;;;;;0.70;0.70;;;;;;;3.91;95.30;96619.84;29395;227;63009;-67
2023/12/21 00:20:55;;;;;;;0.60;0.60;;;;;;;3.89;95.59;96611.22;29395;269;63017;-55
2023/12/21 00:21:26;;;;;;;0.60;0.60;;;;;;;3.89;95.75;96621.97;29395;205;63009;-64
2023/12/21 00:21:57;;;;;;;0.60;0.60;;;;;;;3.92;94.96;96613.41;29394;284;64004;-54
2023/12/21 00:22:28;;;;;;;0.60;0.60;;;;;;;3.92;95.03;96605.34;29395;215;63008;-64
2023/12/21 00:23:02;;;;;;;0.60;0.60;;;;;;;3.90;95.25;96604.78;29395;313;63004;-54
2023/12/21 00:23:37;;;;;;;0.60;0.60;;;;;;;3.91;95.79;96614.47;29395;268;63023;-59
2023/12/21 00:24:08;;;;;;;0.60;0.60;;;;;;;3.92;95.33;96610.72;29395;206;63005;-66
2023/12/21 00:24:40;;;;;;;0.60;0.60;;;;;;;3.96;95.11;96606.44;29395;214;63005;-64
2023/12/21 00:25:11;;;;;;;0.60;0.60;;;;;;;4.00;94.60;96607.56;29395;301;63005;-69
2023/12/21 00:25:42;;;;;;;1.87;1.77;;;;;;;3.97;94.37;96618.81;29395;222;63009;-54
2023/12/21 00:26:14;;;;;;;0.60;0.60;;;;;;;3.96;95.22;96611.00;29395;247;63005;-57
2023/12/21 00:26:45;;;;;;;0.60;0.60;;;;;;;3.95;95.37;96602.16;29395;215;63009;-61
2023/12/21 00:27:16;;;;;;;0.60;0.60;;;;;;;3.98;94.68;96603.50;29394;216;64005;-55
2023/12/21 00:27:47;;;;;;;0.82;0.82;;;;;;;3.96;95.12;96597.59;29395;205;63009;-55
2023/12/21 00:28:18;;;;;;;0.60;0.60;;;;;;;3.97;95.04;96600.03;29395;250;63004;-67
2023/12/21 00:28:50;;;;;;;0.60;0.60;;;;;;;3.95;95.20;96588.72;29395;202;63009;-69
2023/12/21 00:29:21;;;;;;;0.60;0.60;;;;;;;3.95;95.03;96595.97;29395;223;63004;-73
2023/12/21 00:29:56;;;;;;;0.60;0.60;;;;;;;4.03;94.88;96590.12;29395;196;63009;-57
2023/12/21 00:30:27;;;;;;;0.60;0.60;;;;;;;4.04;94.51;96592.56;29395;206;63004;-68
2023/12/21 00:30:58;;;;;;;0.60;0.60;;;;;;;4.13;93.92;96589.41;29395;209;63009;-56
2023/12/21 00:31:30;;;;;;;0.60;0.60;;;;;;;4.07;94.40;96595.78;29395;299;63005;-55
2023/12/21 00:32:02;;;;;;;0.60;0.60;;;;;;;4.10;94.50;96589.91;29395;209;63009;-58
2023/12/21 00:32:33;;;;;;;0.60;0.60;;;;;;;4.11;94.48;96596.91;29394;233;64005;-67
2023/12/21 00:33:05;;;;;;;0.60;0.60;;;;;;;4.07;94.15;96593.09;29395;293;63018;-54
2023/12/21 00:33:37;;;;;;;0.60;0.60;;;;;;;4.09;94.45;96583.72;29395;240;63005;-60
2023/12/21 00:34:08;;;;;;;0.60;0.60;;;;;;;4.09;94.26;96589.09;29395;238;63009;-55
2023/12/21 00:34:39;;;;;;;0.60;0.60;;;;;;;4.03;94.41;96585.56;29395;244;63005;-55
2023/12/21 00:35:12;;;;;;;0.60;0.60;;;;;;;4.01;94.35;96585.03;29395;271;63022;-68
2023/12/21 00:35:43;;;;;;;0.60;0.60;;;;;;;3.95;94.78;96572.63;29395;215;63004;-56
2023/12/21 00:36:18;;;;;;;0.60;0.60;;;;;;;3.91;95.16;96590.31;29395;265;63009;-68
2023/12/21 00:36:51;;;;;;;0.60;0.60;;;;;;;3.84;96.11;96570.94;29395;214;63009;-56
2023/12/21 00:37:22;;;;;;;0.60;0.60;;;;;;;3.87;95.70;96581.16;29395;217;63009;-70
2023/12/21 00:37:57;;;;;;;0.77;0.77;;;;;;;3.93;95.60;96579.31;29394;213;64004;-61
2023/12/21 00:38:28;;;;;;;0.60;0.60;;;;;;;3.95;95.14;96607.53;29395;263;63009;-58
2023/12/21 00:39:00;;;;;;;0.60;0.60;;;;;;;4.01;94.98;96582.34;29395;206;63005;-70
2023/12/21 00:39:31;;;;;;;0.50;0.50;;;;;;;3.98;95.04;96587.41;29395;237;63009;-55
2023/12/21 00:40:07;;;;;;;0.60;0.60;;;;;;;3.99;94.88;96581.78;29395;199;63000;-55
2023/12/21 00:40:38;;;;;;;0.60;0.60;;;;;;;3.97;94.87;96575.84;29395;276;63009;-55
2023/12/21 00:41:12;;;;;;;0.60;0.60;;;;;;;3.93;94.96;96573.94;29395;230;63005;-68
2023/12/21 00:41:44;;;;;;;0.60;0.60;;;;;;;3.88;95.60;96580.09;29395;257;63009;-69
2023/12/21 00:42:16;;;;;;;0.60;0.60;;;;;;;3.95;95.38;96571.81;29395;284;63005;-63
2023/12/21 00:42:48;;;;;;;0.60;0.60;;;;;;;4.00;94.91;96567.28;29395;228;63009;-55
2023/12/21 00:43:19;;;;;;;0.60;0.60;;;;;;;3.99;94.57;96579.09;29394;301;64004;-69
2023/12/21 00:43:53;;;;;;;0.60;0.60;;;;;;;4.00;94.73;96586.09;29395;210;63009;-72
2023/12/21 00:44:24;;;;;;;0.60;0.60;;;;;;;3.98;94.97;96582.03;29395;252;63004;-56
2023/12/21 00:44:56;;;;;;;0.60;0.60;;;;;;;3.97;94.99;96575.84;29395;266;63009;-55
2023/12/21 00:45:27;;;;;;;0.60;0.60;;;;;;;3.99;94.70;96576.41;29395;201;63004;-63
2023/12/21 00:45:59;;;;;;;0.60;0.60;;;;;;;4.00;94.27;96580.72;29395;212;63018;-68
2023/12/21 00:46:30;;;;;;;0.57;0.57;;;;;;;4.04;94.37;96581.81;29395;205;63005;-56
2023/12/21 00:47:02;;;;;;;0.50;0.50;;;;;;;4.13;93.63;96584.03;29395;251;63009;-65
2023/12/21 00:47:35;;;;;;;0.50;0.50;;;;;;;4.15;93.40;96581.88;29395;213;63005;-61
2023/12/21 00:48:07;;;;;;;0.60;0.60;;;;;;;4.20;93.31;96574.66;29395;363;63009;-54
2023/12/21 00:48:39;;;;;;;0.60;0.60;;;;;;;4.16;93.18;96572.78;29394;301;64005;-54
2023/12/21 00:49:11;;;;;;;0.60;0.60;;;;;;;4.08;93.47;96570.56;29395;301;63019;-67
2023/12/21 00:49:43;;;;;;;0.60;0.60;;;;;;;4.03;94.06;96585.56;29395;202;63005;-68
2023/12/21 00:50:14;;;;;;;0.60;0.60;;;;;;;4.02;95.21;96578.59;29394;221;64009;-55
2023/12/21 00:50:45;;;;;;;0.60;0.60;;;;;;;3.98;94.78;96577.47;29395;233;63004;-55
2023/12/21 00:51:16;;;;;;;0.55;0.55;;;;;;;3.95;95.16;96578.00;29395;228;63009;-54
2023/12/21 00:51:48;;;;;;;0.50;0.50;;;;;;;4.00;95.12;96575.34;29395;246;63000;-55
2023/12/21 00:52:19;;;;;;;0.60;0.60;;;;;;;4.08;94.72;96584.00;29395;372;63009;-58
2023/12/21 00:52:50;;;;;;;0.55;0.55;;;;;;;4.11;94.28;96575.41;29395;234;63004;-55
2023/12/21 00:53:22;;;;;;;0.60;0.60;;;;;;;4.10;94.05;96584.53;29395;211;63008;-55
2023/12/21 00:53:53;;;;;;;0.60;0.60;;;;;;;4.07;94.06;96574.31;29394;216;64005;-67
2023/12/21 00:54:24;;;;;;;0.60;0.60;;;;;;;4.03;94.31;96585.56;29395;202;63009;-68
2023/12/21 00:54:55;;;;;;;0.60;0.60;;;;;;;4.07;94.21;96579.69;29395;222;63005;-54
2023/12/21 00:55:27;;;;;;;0.60;0.60;;;;;;;4.03;94.40;96585.56;29395;229;63009;-55
2023/12/21 00:56:00;;;;;;;0.60;0.60;;;;;;;3.96;95.34;96579.59;29395;198;63005;-54
2023/12/21 00:56:31;;;;;;;0.60;0.60;;;;;;;3.91;95.47;96570.72;29395;222;63009;-54
2023/12/21 00:57:03;;;;;;;0.60;0.60;;;;;;;3.88;95.94;96576.59;29395;204;63005;-67
2023/12/21 00:57:35;;;;;;;0.60;0.60;;;;;;;3.86;96.08;96579.53;29395;323;63009;-68
2023/12/21 00:58:06;;;;;;;0.60;0.60;;;;;;;3.87;96.16;96581.16;29395;277;63004;-68
2023/12/21 00:58:37;;;;;;;0.60;0.60;;;;;;;3.92;95.83;96573.13;29395;210;63009;-67
2023/12/21 00:59:08;;;;;;;0.60;0.60;;;;;;;3.92;95.95;96570.44;29394;218;64004;-54
2023/12/21 00:59:40;;;;;;;0.57;0.57;;;;;;;3.86;96.72;96568.78;29395;258;63004;-64
2023/12/21 01:00:12;;;;;;;0.60;0.60;;;;;;;3.85;96.76;96567.19;29395;279;63004;-68
2023/12/21 01:00:44;;;;;;;0.60;0.60;;;;;;;3.82;96.94;96574.94;29395;202;63008;-69
2023/12/21 01:01:15;;;;;;;0.60;0.60;;;;;;;3.80;97.15;96575.22;29395;209;63005;-68
2023/12/21 01:01:46;;;;;;;0.60;0.60;;;;;;;3.80;97.16;96591.31;29395;216;63009;-70
2023/12/21 01:02:18;;;;;;;0.60;0.60;;;;;;;3.86;96.90;96573.34;29395;329;63005;-68
2023/12/21 01:02:49;;;;;;;0.60;0.60;;;;;;;3.89;96.73;96579.03;29395;224;63009;-55
2023/12/21 01:03:22;;;;;;;0.60;0.60;;;;;;;3.94;96.63;96576.38;29395;217;63005;-64
2023/12/21 01:03:53;;;;;;;0.60;0.60;;;;;;;3.96;96.04;96568.88;29394;202;64009;-54
2023/12/21 01:04:25;;;;;;;0.60;0.60;;;;;;;3.92;96.49;96570.44;29395;213;63004;-70
2023/12/21 01:04:56;;;;;;;0.60;0.60;;;;;;;3.97;96.09;96570.50;29395;257;63009;-56
2023/12/21 01:05:28;;;;;;;0.60;0.60;;;;;;;3.96;96.09;96568.88;29395;234;63004;-55
2023/12/21 01:05:59;;;;;;;0.60;0.60;;;;;;;3.95;96.30;96564.56;29395;203;63009;-55
2023/12/21 01:06:30;;;;;;;0.60;0.60;;;;;;;3.91;96.99;96568.84;29395;222;63007;-70
2023/12/21 01:07:03;;;;;;;0.60;0.60;;;;;;;3.86;97.23;96568.78;29395;220;63008;-71
2023/12/21 01:07:35;;;;;;;0.55;0.55;;;;;;;3.85;97.39;96577.91;29395;246;63004;-69
2023/12/21 01:08:07;;;;;;;0.60;0.60;;;;;;;3.96;96.70;96574.25;29395;234;63008;-58
2023/12/21 01:08:38;;;;;;;0.60;0.60;;;;;;;3.97;96.68;96569.69;29395;360;63005;-57
2023/12/21 01:09:10;;;;;;;0.60;0.60;;;;;;;3.98;96.69;96569.41;29394;226;64009;-54
2023/12/21 01:09:41;;;;;;;0.60;0.60;;;;;;;3.92;97.42;96567.75;29395;214;63005;-55
2023/12/21 01:10:13;;;;;;;0.60;0.60;;;;;;;3.91;97.34;96571.50;29395;229;63009;-69
2023/12/21 01:10:45;;;;;;;0.57;0.57;;;;;;;3.91;97.18;96566.16;29394;209;64005;-69
2023/12/21 01:11:19;;;;;;;0.60;0.60;;;;;;;3.89;97.20;96562.91;29395;199;63009;-70
2023/12/21 01:11:52;;;;;;;0.60;0.60;;;;;;;3.93;97.20;96561.34;29395;209;63005;-55
2023/12/21 01:12:24;;;;;;;0.60;0.60;;;;;;;3.91;97.02;96565.34;29395;212;63009;-69
2023/12/21 01:12:56;;;;;;;0.52;0.52;;;;;;;3.86;96.99;96567.97;29395;204;63004;-69
2023/12/21 01:13:27;;;;;;;0.60;0.60;;;;;;;3.90;97.46;96553.00;29395;218;63009;-56
2023/12/21 01:13:59;;;;;;;0.60;0.60;;;;;;;3.92;97.25;96566.97;29395;288;63004;-55
2023/12/21 01:14:31;;;;;;;0.60;0.60;;;;;;;3.96;97.18;96555.44;29395;229;63008;-55
2023/12/21 01:15:03;;;;;;;0.60;0.60;;;;;;;3.94;97.33;96554.91;29395;209;63004;-54
2023/12/21 01:15:34;;;;;;;0.60;0.60;;;;;;;3.96;97.56;96563.50;29395;322;63009;-59
2023/12/21 01:16:07;;;;;;;0.60;0.60;;;;;;;4.04;96.87;96562.22;29394;327;64005;-68
2023/12/21 01:16:38;;;;;;;0.60;0.60;;;;;;;4.04;96.83;96549.59;29395;274;63025;-57
2023/12/21 01:17:09;;;;;;;0.60;0.60;;;;;;;4.02;96.80;96557.09;29395;210;63005;-68
2023/12/21 01:17:40;;;;;;;0.60;0.60;;;;;;;4.01;96.69;96571.59;29395;278;63009;-56
2023/12/21 01:18:12;;;;;;;0.60;0.60;;;;;;;4.05;96.57;96558.47;29395;216;63014;-56
2023/12/21 01:18:43;;;;;;;0.68;0.68;;;;;;;4.03;96.68;96550.66;29395;197;63009;-69
2023/12/21 01:19:15;;;;;;;0.60;0.60;;;;;;;3.99;97.06;96557.63;29395;225;63005;-74
2023/12/21 01:19:46;;;;;;;0.60;0.60;;;;;;;4.06;96.75;96545.84;29395;220;63009;-71
2023/12/21 01:20:17;;;;;;;0.95;0.95;;;;;;;4.07;96.59;96550.16;29395;239;63004;-70
2023/12/21 01:20:48;;;;;;;0.60;0.60;;;;;;;4.02;96.18;96551.75;29395;242;63009;-69
2023/12/21 01:21:20;;;;;;;0.60;0.60;;;;;;;4.02;96.35;96550.94;29394;231;64004;-67
2023/12/21 01:21:51;;;;;;;0.60;0.60;;;;;;;4.01;96.66;96543.94;29395;202;63009;-70
2023/12/21 01:22:23;;;;;;;0.60;0.60;;;;;;;3.97;96.51;96537.47;29395;215;63008;-54
2023/12/21 01:22:54;;;;;;;0.57;0.57;;;;;;;3.94;96.93;96533.44;29395;363;63009;-70
2023/12/21 01:23:28;;;;;;;0.60;0.60;;;;;;;3.91;97.34;96539.31;29395;207;63010;-53
2023/12/21 01:23:59;;;;;;;0.60;0.60;;;;;;;3.92;97.53;96537.44;29395;198;63009;-55
2023/12/21 01:24:31;;;;;;;0.60;0.60;;;;;;;3.98;97.44;96547.13;29395;279;63016;-59
2023/12/21 01:25:03;;;;;;;0.60;0.60;;;;;;;4.03;96.63;96531.88;29395;255;63009;-63
2023/12/21 01:25:34;;;;;;;0.60;0.60;;;;;;;4.01;96.69;96531.31;29395;326;63005;-54
2023/12/21 01:26:06;;;;;;;0.60;0.60;;;;;;;3.97;97.33;96527.53;29395;222;63027;-55
2023/12/21 01:26:38;;;;;;;0.60;0.60;;;;;;;3.96;97.54;96535.84;29394;219;64005;-69
2023/12/21 01:27:09;;;;;;;0.60;0.60;;;;;;;3.97;97.39;96538.28;29395;218;63009;-55
2023/12/21 01:27:41;;;;;;;0.60;0.60;;;;;;;4.03;96.96;96534.56;29395;230;63004;-56
2023/12/21 01:28:13;;;;;;;0.60;0.60;;;;;;;4.08;96.60;96532.97;29395;236;63009;-57
2023/12/21 01:28:44;;;;;;;0.60;0.60;;;;;;;4.07;96.67;96536.72;29395;197;63004;-55
2023/12/21 01:29:15;;;;;;;0.50;0.50;;;;;;;4.09;96.65;96545.34;29395;211;63009;-56
2023/12/21 01:29:47;;;;;;;0.60;0.60;;;;;;;4.13;96.38;96533.00;29395;340;63004;-60
2023/12/21 01:30:21;;;;;;;0.60;0.60;;;;;;;4.22;95.72;96528.72;29395;233;63008;-59
2023/12/21 01:30:53;;;;;;;0.50;0.50;;;;;;;4.25;95.44;96522.84;29395;206;63005;-67
2023/12/21 01:31:24;;;;;;;0.60;0.60;;;;;;;4.22;95.51;96539.47;29395;203;63019;-67
2023/12/21 01:31:57;;;;;;;0.60;0.60;;;;;;;4.17;95.90;96536.75;29394;240;64005;-56
2023/12/21 01:32:28;;;;;;;0.60;0.60;;;;;;;4.18;95.54;96538.38;29395;327;63009;-55
2023/12/21 01:32:59;;;;;;;0.60;0.60;;;;;;;4.18;95.67;96527.63;29395;196;63005;-59
2023/12/21 01:33:31;;;;;;;0.60;0.60;;;;;;;4.20;95.13;96533.56;29395;222;63009;-66
2023/12/21 01:34:05;;;;;;;0.60;0.60;;;;;;;4.18;95.26;96546.44;29395;202;63005;-67
2023/12/21 01:34:36;;;;;;;0.68;0.68;;;;;;;4.15;95.77;96528.19;29395;220;63009;-55
2023/12/21 01:35:08;;;;;;;0.60;0.60;;;;;;;4.11;95.91;96540.50;29395;238;63004;-55
2023/12/21 01:35:39;;;;;;;0.60;0.60;;;;;;;4.09;96.16;96545.34;29395;214;63017;-57
2023/12/21 01:36:10;;;;;;;0.60;0.60;;;;;;;4.16;95.80;96544.00;29395;196;63004;-60
2023/12/21 01:36:41;;;;;;;0.60;0.60;;;;;;;4.23;95.27;96524.97;29395;197;63009;-55
2023/12/21 01:37:13;;;;;;;0.60;0.60;;;;;;;4.23;95.33;96539.22;29394;270;64004;-66
2023/12/21 01:37:44;;;;;;;0.52;0.52;;;;;;;4.23;95.75;96524.97;29395;219;63008;-62
2023/12/21 01:38:16;;;;;;;0.60;0.60;;;;;;;4.20;95.47;96537.06;29395;258;63005;-68
2023/12/21 01:38:47;;;;;;;0.60;0.60;;;;;;;4.15;95.38;96544.28;29395;214;63009;-70
2023/12/21 01:39:18;;;;;;;0.70;0.70;;;;;;;4.19;95.32;96537.31;29395;241;63005;-55
2023/12/21 01:39:49;;;;;;;1.35;1.35;;;;;;;4.19;95.49;96537.31;29395;197;63015;-54
2023/12/21 01:40:22;;;;;;;0.50;0.50;;;;;;;4.18;95.47;96538.38;29395;222;63005;-55
2023/12/21 01:40:53;;;;;;;0.60;0.60;;;;;;;4.21;95.47;96543.22;29395;202;63009;-56
2023/12/21 01:41:24;;;;;;;0.60;0.60;;;;;;;4.17;95.48;96536.75;29394;258;64005;-64
2023/12/21 01:41:57;;;;;;;0.60;0.60;;;;;;;4.16;95.57;96551.28;29395;209;63009;-54
2023/12/21 01:42:29;;;;;;;0.60;0.60;;;;;;;4.27;95.20;96534.13;29394;374;64004;-57
2023/12/21 01:43:03;;;;;;;0.60;0.60;;;;;;;4.29;94.93;96526.63;29395;273;63009;-66
2023/12/21 01:43:35;;;;;;;0.60;0.60;;;;;;;4.29;94.63;96534.69;29395;198;63004;-55
2023/12/21 01:44:06;;;;;;;0.60;0.60;;;;;;;4.25;94.80;96539.75;29395;224;63009;-67
2023/12/21 01:44:38;;;;;;;0.60;0.60;;;;;;;4.21;95.23;96527.13;29395;208;63004;-55
2023/12/21 01:45:09;;;;;;;0.60;0.60;;;;;;;4.18;95.56;96530.31;29395;248;63008;-73
2023/12/21 01:45:41;;;;;;;0.60;0.60;;;;;;;4.21;95.25;96548.59;29395;233;63005;-61
2023/12/21 01:46:14;;;;;;;0.50;0.50;;;;;;;4.19;95.05;96540.81;29395;294;63009;-69
2023/12/21 01:46:45;;;;;;;0.60;0.60;;;;;;;4.23;95.08;96530.34;29395;207;63005;-68
2023/12/21 01:47:18;;;;;;;0.60;0.60;;;;;;;4.22;95.07;96540.28;29395;200;63009;-69
2023/12/21 01:47:51;;;;;;;0.70;0.70;;;;;;;4.24;95.07;96548.91;29394;225;64005;-59
2023/12/21 01:48:22;;;;;;;0.60;0.60;;;;;;;4.29;94.32;96534.69;29395;197;63026;-70
2023/12/21 01:48:54;;;;;;;0.60;0.60;;;;;;;4.26;94.42;96535.22;29395;211;63005;-55
2023/12/21 01:49:26;;;;;;;0.60;0.60;;;;;;;4.21;94.76;96522.56;29395;202;63009;-55
2023/12/21 01:49:57;;;;;;;0.60;0.60;;;;;;;4.17;94.92;96542.13;29395;234;63004;-66
2023/12/21 01:50:29;;;;;;;0.60;0.60;;;;;;;4.22;95.02;96524.19;29395;245;63009;-55
2023/12/21 01:51:02;;;;;;;0.60;0.60;;;;;;;4.16;95.37;96533.28;29395;208;63004;-55
2023/12/21 01:51:34;;;;;;;0.60;0.60;;;;;;;4.25;94.55;96517.47;29395;220;63009;-53
2023/12/21 01:52:06;;;;;;;0.60;0.60;;;;;;;4.24;94.67;96519.34;29395;235;63004;-55
2023/12/21 01:52:38;;;;;;;0.60;0.60;;;;;;;4.24;94.83;96521.22;29395;231;63008;-66
2023/12/21 01:53:11;;;;;;;0.60;0.60;;;;;;;4.23;94.51;96520.41;29394;247;64005;-64
2023/12/21 01:53:45;;;;;;;0.60;0.60;;;;;;;4.20;95.01;96504.03;29395;240;63009;-54
2023/12/21 01:54:17;;;;;;;0.60;0.60;;;;;;;4.14;95.60;96524.69;29395;253;63005;-54
2023/12/21 01:54:53;;;;;;;0.60;0.60;;;;;;;4.14;95.84;96527.38;29395;209;63009;-69
2023/12/21 01:55:27;;;;;;;0.60;0.60;;;;;;;4.10;95.39;96510.16;29395;210;63005;-54
2023/12/21 01:56:00;;;;;;;0.60;0.60;;;;;;;4.09;96.51;96508.56;29395;197;63009;-63
2023/12/21 01:56:33;;;;;;;0.60;0.60;;;;;;;4.06;96.33;96516.31;29395;239;63008;-55
2023/12/21 01:57:08;;;;;;;0.60;0.60;;;;;;;4.04;96.20;96495.91;29395;216;63009;-68
2023/12/21 01:57:40;;;;;;;0.60;0.60;;;;;;;4.03;96.65;96507.72;29395;208;63004;-68
2023/12/21 01:58:12;;;;;;;0.85;0.85;;;;;;;4.08;96.75;96495.37;29394;293;64009;-62
2023/12/21 01:58:44;;;;;;;0.60;0.60;;;;;;;4.14;95.92;96497.03;29395;204;63004;-54
2023/12/21 01:59:15;;;;;;;0.57;0.57;;;;;;;4.17;95.31;96491.12;29395;348;63008;-66
2023/12/21 01:59:47;;;;;;;0.60;0.60;;;;;;;4.15;95.05;96487.91;29395;272;63004;-68
2023/12/21 02:00:20;;;;;;;0.60;0.60;;;;;;;4.11;95.54;96486.81;29395;235;63008;-54
2023/12/21 02:00:52;;;;;;;0.60;0.60;;;;;;;4.11;96.31;96500.25;29395;212;63005;-56
2023/12/21 02:01:25;;;;;;;0.50;0.50;;;;;;;4.20;95.81;96482.53;29395;200;63009;-56
2023/12/21 02:01:56;;;;;;;0.60;0.60;;;;;;;4.21;95.35;96484.16;29395;256;63005;-65
2023/12/21 02:02:27;;;;;;;0.60;0.60;;;;;;;4.22;94.99;96485.78;29395;204;63009;-64
2023/12/21 02:02:59;;;;;;;0.60;0.60;;;;;;;4.21;95.14;96478.78;29395;285;63005;-54
2023/12/21 02:03:31;;;;;;;0.60;0.60;;;;;;;4.17;95.00;96475.81;29394;219;64009;-68
2023/12/21 02:04:04;;;;;;;0.60;0.60;;;;;;;4.12;95.51;96483.06;29395;197;63004;-64
2023/12/21 02:04:35;;;;;;;0.60;0.60;;;;;;;4.16;95.19;96471.50;29395;251;63009;-66
2023/12/21 02:05:07;;;;;;;0.60;0.60;;;;;;;4.23;95.01;96472.09;29395;235;63004;-57
2023/12/21 02:05:38;;;;;;;0.60;0.60;;;;;;;4.21;94.95;96474.22;29395;248;63014;-55
2023/12/21 02:06:09;;;;;;;0.60;0.60;;;;;;;4.16;95.10;96476.88;29394;279;64004;-54
2023/12/21 02:06:41;;;;;;;0.60;0.60;;;;;;;4.23;94.82;96468.59;29395;306;63008;-55
2023/12/21 02:07:12;;;;;;;0.60;0.60;;;;;;;4.27;94.70;96499.22;29395;268;63004;-58
2023/12/21 02:07:43;;;;;;;0.60;0.60;;;;;;;4.30;94.26;96474.53;29395;218;63019;-56
2023/12/21 02:08:18;;;;;;;0.60;0.60;;;;;;;4.30;93.69;96467.28;29395;204;63005;-71
2023/12/21 02:08:49;;;;;;;0.60;0.60;;;;;;;4.31;94.02;96473.47;29394;203;64009;-56
2023/12/21 02:09:21;;;;;;;0.60;0.60;;;;;;;4.30;93.90;96469.16;29395;239;63005;-69
2023/12/21 02:09:52;;;;;;;0.60;0.60;;;;;;;4.26;93.91;96465.37;29395;257;63009;-68
2023/12/21 02:10:23;;;;;;;0.60;0.60;;;;;;;4.23;94.03;96464.03;29395;266;63008;-70
2023/12/21 02:11:00;;;;;;;0.60;0.60;;;;;;;4.26;93.94;96465.37;29395;218;63009;-67
2023/12/21 02:11:31;;;;;;;0.60;0.60;;;;;;;4.23;94.13;96464.03;29395;215;63004;-68
2023/12/21 02:12:03;;;;;;;0.60;0.60;;;;;;;4.20;94.56;96475.28;29395;216;63009;-56
2023/12/21 02:12:36;;;;;;;0.60;0.60;;;;;;;4.13;95.82;96465.88;29395;196;63004;-54
2023/12/21 02:13:07;;;;;;;0.60;0.60;;;;;;;4.09;96.05;96464.78;29395;202;63009;-55
2023/12/21 02:13:39;;;;;;;0.60;0.60;;;;;;;4.11;95.77;96462.66;29395;214;63004;-54
2023/12/21 02:14:10;;;;;;;0.50;0.50;;;;;;;4.09;96.06;96454.06;29394;206;64008;-71
2023/12/21 02:14:41;;;;;;;0.60;0.60;;;;;;;4.04;96.13;96452.94;29395;244;63004;-54
2023/12/21 02:15:13;;;;;;;0.60;0.60;;;;;;;4.04;96.40;96458.31;29395;202;63009;-59
2023/12/21 02:15:45;;;;;;;0.60;0.60;;;;;;;4.12;95.85;96454.34;29395;197;63005;-66
2023/12/21 02:16:51;;;;;;;0.60;0.60;;;;;;;4.19;95.20;96462.94;29395;223;63009;-59
2023/12/21 02:17:24;;;;;;;0.70;0.70;;;;;;;4.17;95.11;96448.97;29395;219;63005;-68
2023/12/21 02:17:59;;;;;;;0.60;0.60;;;;;;;4.15;95.49;96456.50;29395;258;63009;-73
2023/12/21 02:18:32;;;;;;;0.60;0.60;;;;;;;4.15;95.73;96458.38;29395;197;63018;-55
2023/12/21 02:19:05;;;;;;;0.60;0.60;;;;;;;4.12;95.60;96458.91;29395;197;63009;-55
2023/12/21 02:19:38;;;;;;;0.60;0.60;;;;;;;4.09;95.82;96443.31;29394;203;64004;-70
2023/12/21 02:20:11;;;;;;;0.60;0.60;;;;;;;4.14;95.97;96441.44;29395;218;63009;-66
2023/12/21 02:20:43;;;;;;;0.60;0.60;;;;;;;4.14;96.11;96457.56;29395;202;63004;-55
2023/12/21 02:21:15;;;;;;;0.60;0.60;;;;;;;4.19;96.16;96454.06;29395;220;63009;-69
2023/12/21 02:21:49;;;;;;;0.60;0.60;;;;;;;4.22;95.73;96453.53;29395;208;63004;-56
2023/12/21 02:22:24;;;;;;;0.60;0.60;;;;;;;4.22;95.88;96456.22;29395;216;63008;-56
2023/12/21 02:22:59;;;;;;;0.60;0.60;;;;;;;4.21;95.68;96454.63;29395;232;63008;-68
2023/12/21 02:23:36;;;;;;;0.60;0.60;;;;;;;4.19;95.77;96454.06;29395;198;63009;-69
2023/12/21 02:24:18;;;;;;;0.60;0.60;;;;;;;4.22;95.76;96459.72;29395;208;63016;-55
2023/12/21 02:24:49;;;;;;;0.60;0.60;;;;;;;4.25;95.18;96448.47;29394;205;64009;-57
2023/12/21 02:25:21;;;;;;;0.60;0.60;;;;;;;4.28;95.17;96469.41;29395;247;63010;-56
2023/12/21 02:25:52;;;;;;;0.70;0.70;;;;;;;4.30;94.50;96450.34;29395;247;63009;-68
2023/12/21 02:26:27;;;;;;;0.60;0.60;;;;;;;4.31;94.86;96462.72;29395;219;63005;-65
2023/12/21 02:27:00;;;;;;;0.60;0.60;;;;;;;4.32;94.58;96454.41;29395;300;63009;-68
2023/12/21 02:27:31;;;;;;;0.60;0.60;;;;;;;4.29;94.71;96457.59;29395;241;63016;-69
2023/12/21 02:28:03;;;;;;;0.60;0.60;;;;;;;4.28;94.85;96456.00;29395;197;63018;-68
2023/12/21 02:28:34;;;;;;;0.60;0.60;;;;;;;4.34;94.58;96446.06;29395;197;63000;-55
2023/12/21 02:29:05;;;;;;;0.60;0.60;;;;;;;4.40;94.20;96444.22;29395;221;63008;-57
2023/12/21 02:29:37;;;;;;;0.60;0.60;;;;;;;4.37;94.25;96445.56;29395;225;63014;-66
2023/12/21 02:30:09;;;;;;;0.68;0.68;;;;;;;4.43;94.11;96455.25;29394;242;64009;-62
2023/12/21 02:30:40;;;;;;;0.60;0.60;;;;;;;4.39;93.86;96459.53;29395;228;63005;-68
2023/12/21 02:31:11;;;;;;;0.60;0.60;;;;;;;4.36;94.19;96449.31;29395;255;63009;-56
2023/12/21 02:31:43;;;;;;;0.60;0.60;;;;;;;4.34;94.65;96429.97;29395;223;63005;-70
2023/12/21 02:32:14;;;;;;;0.50;0.50;;;;;;;4.37;94.58;96446.34;29395;226;63009;-68
2023/12/21 02:32:45;;;;;;;0.60;0.60;;;;;;;4.41;94.19;96441.28;29395;214;63007;-62
2023/12/21 02:33:20;;;;;;;0.60;0.60;;;;;;;4.40;94.37;96439.66;29395;284;63009;-70
2023/12/21 02:33:51;;;;;;;0.50;0.50;;;;;;;4.39;94.42;96443.41;29395;238;63010;-55
2023/12/21 02:34:22;;;;;;;0.60;0.60;;;;;;;4.37;94.64;96441.00;29395;206;63009;-64
2023/12/21 02:34:53;;;;;;;0.60;0.60;;;;;;;4.42;94.13;96410.66;29395;210;63004;-59
2023/12/21 02:35:25;;;;;;;0.60;0.60;;;;;;;4.52;93.53;96431.34;29394;207;64009;-56
2023/12/21 02:35:56;;;;;;;0.60;0.60;;;;;;;4.45;93.54;96431.63;29395;292;63004;-54
2023/12/21 02:36:27;;;;;;;0.57;0.57;;;;;;;4.41;93.69;96427.03;29395;224;63009;-56
2023/12/21 02:36:58;;;;;;;0.60;0.60;;;;;;;4.37;93.74;96422.19;29395;199;63004;-69